Aeroporto :
LOGIN :

Iscrizione | Disclaimer

   EN    FR    IT 

 










Sommario :    VFR   VFR Marginale   IFR   IFR Intensivo   IFR Molto Intensivo
Visibilità : 
Base nubi : 
>= 8 km
>= 3000ft
5 / 8 km
1000 / 3000 ft
1500m / 5 km
500 / 1000 ft
800 / 1500m
200 / 500 ft
< 800m
< 200 ft
Simboli :   Temporali  Nebbia  Neve Forte  Precipitazioni Forti  Vento > 20 kt
SIGMETs :   Varie  Temporali  Ghiacco  Turbolenza  Onda orograficha  Ceneri Vulcaniche






- Altitudine del aeroporto : 156 ft
- Codice IATA : OMO


LQMO - Mostar

ULTIMO METAR :
  • 211030Z 18007KT 110V260 9999 FEW050 34/15 Q1008

METARs OBSOLETI :
  • 211000Z VRB06KT 9999 FEW050 33/15 Q1008
  • 210930Z 17006KT 090V250 9999 FEW050 33/17 Q1008
  • 210900Z VRB03KT 9999 FEW045 32/17 Q1008
  • 210830Z VRB04KT 9999 FEW045 30/17 Q1008
  • 210800Z VRB03KT 9999 FEW045 29/18 Q1009
  • 210730Z VRB03KT 9999 FEW045 28/18 Q1009
  • 210700Z 30003KT 260V350 9999 FEW045 27/18 Q1009
  • 210630Z VRB02KT 9999 FEW045 26/18 Q1009
  • 210600Z VRB02KT 9999 FEW060 25/18 Q1009

TAF TAF LQMO
Valido dal 21 a 06 ore il 22 a 06 ore UTC


210500Z 2106/2206 35005KT CAVOK TX35/2113Z TN21/2203Z
TEMPO 2110/2116 22010KT



MetMap, La meteo Aeronautica in un colpo d'occhio ! - Copyright ORBIFLY Dicembre 2007 - Disclaimer

ORBIFLY MET'MAP TEAM :

Programmazione e sviluppo : Alexandra Zaïnal
Concezione : Baudouin d'Aumeries
Supporto tecnico e logistico : Manuel Goepfert
Aiuto : Marc-Olivier Méhu
Aiuto per la traduzione : Arnaldo La Scala




FONTI E CREDITI :

   NOAA